Time;durP1;ratioP1;P1;durP2;ratioP2;P2;SDS_P1;SDS_P2;PMS_P1;PMS_P2;Temp;Humidity;BMP_temperature;BMP_pressure;BME280_temperature;BME280_humidity;BME280_pressure;Samples;Min_cycle;Max_cycle;Signal;HPM_P1;HPM_P2
2022/08/07 00:00:57;;;;;;;;;1.00;1.00;;;;;19.50;73.91;101948.31;5011558;28;45925;-80
2022/08/07 00:03:24;;;;;;;;;2.00;2.00;;;;;19.47;74.54;101954.34;5010282;28;45753;-79
2022/08/07 00:05:51;;;;;;;;;3.00;3.00;;;;;19.38;75.22;101950.22;5010278;28;45971;-79
2022/08/07 00:08:17;;;;;;;;;4.00;4.00;;;;;19.17;76.53;101916.31;5010493;28;45470;-81
2022/08/07 00:10:43;;;;;;;;;3.67;3.67;;;;;19.28;76.82;101944.41;5011143;28;45709;-80
2022/08/07 00:13:10;;;;;;;;;1.67;1.67;;;;;19.21;77.41;101950.91;5014526;28;45440;-80
2022/08/07 00:15:36;;;;;;;;;3.00;3.00;;;;;19.15;78.35;101937.13;5012578;28;46929;-80
2022/08/07 00:18:04;;;;;;;;;3.33;2.00;;;;;19.16;78.53;101938.78;5015815;28;46365;-79
2022/08/07 00:20:30;;;;;;;;;2.33;2.33;;;;;19.00;78.83;101921.72;5015345;28;45699;-79
2022/08/07 00:22:55;;;;;;;;;0.00;0.00;;;;;19.05;79.00;101937.69;5014175;28;45794;-80
2022/08/07 00:25:23;;;;;;;;;3.67;3.67;;;;;18.87;79.12;101910.78;5015312;28;45475;-83
2022/08/07 00:27:49;;;;;;;;;3.00;3.00;;;;;18.82;80.08;101908.69;5015541;28;45458;-82
2022/08/07 00:30:14;;;;;;;;;2.00;2.00;;;;;18.91;80.81;101922.28;5016212;28;45553;-80
2022/08/07 00:32:40;;;;;;;;;3.67;2.67;;;;;18.94;81.29;101927.38;5014630;28;45675;-80
2022/08/07 00:35:09;;;;;;;;;5.00;5.00;;;;;18.94;81.55;101938.50;5016474;28;45487;-79
2022/08/07 00:37:35;;;;;;;;;3.00;2.33;;;;;18.91;81.66;101927.81;5010561;28;45450;-81
2022/08/07 00:40:01;;;;;;;;;2.00;2.00;;;;;18.85;82.13;101913.81;5021914;28;45512;-82
2022/08/07 00:42:27;;;;;;;;;4.00;3.00;;;;;18.69;82.34;101894.97;5023677;28;45819;-80
2022/08/07 00:44:52;;;;;;;;;3.00;3.00;;;;;18.78;82.92;101907.44;5013755;28;45578;-80
2022/08/07 00:47:18;;;;;;;;;2.67;2.33;;;;;18.86;82.86;101928.53;5012174;28;46126;-79
2022/08/07 00:49:46;;;;;;;;;4.00;4.00;;;;;18.79;82.93;101909.16;5015849;28;45434;-80
2022/08/07 00:52:12;;;;;;;;;2.67;2.67;;;;;18.74;83.76;101911.78;5004348;28;45371;-82
2022/08/07 00:54:38;;;;;;;;;2.67;1.67;;;;;18.64;83.91;101892.06;5015996;28;45547;-80
2022/08/07 00:57:04;;;;;;;;;3.00;3.00;;;;;18.63;84.50;101874.53;5012774;28;47123;-80
2022/08/07 00:59:30;;;;;;;;;2.00;2.00;;;;;18.82;84.72;101903.13;5013061;28;45325;-79
2022/08/07 01:01:56;;;;;;;;;3.00;3.00;;;;;18.82;85.35;101908.69;5007542;28;45936;-79
2022/08/07 01:04:21;;;;;;;;;6.00;4.33;;;;;18.80;85.41;101898.88;5012816;28;45681;-79
2022/08/07 01:06:46;;;;;;;;;3.67;2.00;;;;;18.74;85.77;101888.72;5013429;28;45391;-80
2022/08/07 01:09:12;;;;;;;;;3.00;2.00;;;;;18.67;86.66;101880.47;5025464;28;45994;-79
2022/08/07 01:11:39;;;;;;;;;4.00;3.00;;;;;18.72;87.16;101888.94;5014252;28;45819;-80
2022/08/07 01:14:06;;;;;;;;;3.00;3.00;;;;;18.66;87.13;101896.28;5006420;28;45364;-80
2022/08/07 01:16:31;;;;;;;;;2.00;2.00;;;;;18.70;87.13;101896.69;5011668;28;45505;-79
2022/08/07 01:18:57;;;;;;;;;3.67;3.67;;;;;18.63;87.12;101882.03;5012369;28;45479;-79
2022/08/07 01:21:24;;;;;;;;;2.33;2.33;;;;;18.48;88.05;101863.00;5013167;28;45774;-81
2022/08/07 01:23:51;;;;;;;;;2.00;2.00;;;;;18.65;88.57;101890.97;5014451;28;45560;-79
2022/08/07 01:26:19;;;;;;;;;2.67;2.00;;;;;18.46;88.24;101866.00;5007565;28;45633;-82
2022/08/07 01:28:48;;;;;;;;;4.33;4.00;;;;;18.58;88.73;101901.31;5013920;28;45493;-79
2022/08/07 01:31:15;;;;;;;;;2.33;2.00;;;;;18.40;89.95;101875.28;5014594;28;45781;-80
2022/08/07 01:33:41;;;;;;;;;3.00;3.00;;;;;18.42;89.71;101869.50;5014652;28;45503;-78
2022/08/07 01:36:10;;;;;;;;;3.00;3.00;;;;;18.29;90.30;101854.72;5003055;28;46317;-80
2022/08/07 01:38:38;;;;;;;;;2.00;2.00;;;;;18.30;90.68;101852.75;5014980;28;45798;-79
2022/08/07 01:41:05;;;;;;;;;4.00;4.00;;;;;18.54;90.77;101895.38;5014848;28;45822;-79
2022/08/07 01:43:31;;;;;;;;;2.33;2.33;;;;;18.51;90.86;101899.47;5012188;28;45719;-77
2022/08/07 01:45:58;;;;;;;;;2.00;2.00;;;;;18.47;91.45;101889.94;5013063;28;45763;-79
2022/08/07 01:48:24;;;;;;;;;2.33;2.33;;;;;18.32;91.92;101870.03;5012383;28;45783;-79
2022/08/07 01:50:57;;;;;;;;;4.00;4.00;;;;;18.25;92.22;101860.94;5011534;28;45503;-79
2022/08/07 01:53:24;;;;;;;;;3.00;3.00;;;;;18.45;92.53;101897.63;5011797;28;47060;-80
2022/08/07 01:55:55;;;;;;;;;3.00;2.33;;;;;18.36;93.17;101876.81;5012725;28;46654;-79
2022/08/07 01:58:22;;;;;;;;;3.00;3.00;;;;;18.35;93.81;101887.09;5012775;28;45737;-80
2022/08/07 02:00:54;;;;;;;;;3.00;3.00;;;;;18.34;94.00;101895.66;5012109;28;45853;-80
2022/08/07 02:03:22;;;;;;;;;2.00;1.00;;;;;18.30;94.37;101898.03;5011269;28;46564;-80
2022/08/07 02:05:53;;;;;;;;;3.00;3.00;;;;;18.25;95.00;101888.69;5013301;28;45479;-80
2022/08/07 02:08:24;;;;;;;;;2.00;2.00;;;;;18.12;96.08;101881.41;5012338;28;45845;-78
2022/08/07 02:10:52;;;;;;;;;5.00;2.33;;;;;18.18;96.95;101897.97;5013358;28;45901;-78
2022/08/07 02:13:29;;;;;;;;;2.33;2.33;;;;;18.00;97.04;101864.66;5011240;28;45542;-81
2022/08/07 02:15:59;;;;;;;;;4.00;4.00;;;;;17.88;97.22;101867.31;5018102;28;48795;-80
2022/08/07 02:18:28;;;;;;;;;2.67;2.00;;;;;18.04;97.96;101895.56;5014098;28;45610;-80
2022/08/07 02:20:56;;;;;;;;;2.00;2.00;;;;;17.98;99.21;101892.66;5017252;28;45806;-79
2022/08/07 02:23:24;;;;;;;;;2.00;2.00;;;;;17.95;99.69;101906.16;5012860;28;45980;-79
2022/08/07 02:25:55;;;;;;;;;2.67;2.67;;;;;17.91;100.00;101894.66;5012534;28;45783;-80
2022/08/07 02:28:22;;;;;;;;;2.33;2.33;;;;;17.74;100.00;101872.19;5012762;28;45339;-80
2022/08/07 02:30:49;;;;;;;;;2.00;2.00;;;;;17.84;100.00;101896.59;5011208;28;45400;-82
2022/08/07 02:33:17;;;;;;;;;3.00;3.00;;;;;17.71;100.00;101875.41;5010938;28;45879;-80
2022/08/07 02:35:45;;;;;;;;;3.00;3.00;;;;;17.79;100.00;101894.53;5011857;28;45741;-80
2022/08/07 02:38:14;;;;;;;;;3.00;3.00;;;;;17.70;100.00;101873.69;5013072;28;45736;-81
2022/08/07 02:40:40;;;;;;;;;2.00;2.00;;;;;17.67;100.00;101868.63;5012269;28;45730;-81
2022/08/07 02:43:07;;;;;;;;;4.33;2.00;;;;;17.74;100.00;101891.59;5013325;28;45481;-80
2022/08/07 02:45:37;;;;;;;;;4.00;3.00;;;;;17.54;100.00;101864.03;5010759;28;45546;-81
2022/08/07 02:48:03;;;;;;;;;3.33;3.33;;;;;17.60;100.00;101867.81;5011613;28;46245;-80
2022/08/07 02:50:33;;;;;;;;;3.00;3.00;;;;;17.62;100.00;101876.78;5012989;28;45301;-80
2022/08/07 02:53:03;;;;;;;;;2.33;2.33;;;;;17.59;100.00;101872.53;5026407;28;45669;-76
2022/08/07 02:55:35;;;;;;;;;3.00;3.00;;;;;17.67;100.00;101885.25;5025918;28;46149;-80
2022/08/07 02:58:06;;;;;;;;;4.00;2.00;;;;;17.59;100.00;101880.00;5031838;28;45734;-79
2022/08/07 03:00:37;;;;;;;;;4.00;3.00;;;;;17.51;100.00;101861.72;5021234;28;45478;-83
2022/08/07 03:03:06;;;;;;;;;3.33;3.33;;;;;17.62;100.00;101876.78;5023247;28;45349;-80
2022/08/07 03:05:35;;;;;;;;;2.33;2.33;;;;;17.65;100.00;101879.09;5023131;28;47142;-79
2022/08/07 03:08:03;;;;;;;;;3.00;3.00;;;;;17.62;100.00;101879.56;5023261;28;45735;-79
2022/08/07 03:10:32;;;;;;;;;3.00;3.00;;;;;17.60;100.00;101876.97;5021231;28;45446;-78
2022/08/07 03:12:59;;;;;;;;;6.67;5.00;;;;;17.43;100.00;101860.09;5023845;28;45344;-80
2022/08/07 03:15:26;;;;;;;;;4.67;4.67;;;;;17.53;100.00;101873.44;5023333;28;47119;-79
2022/08/07 03:17:56;;;;;;;;;3.00;2.00;;;;;17.35;100.00;101837.34;5022587;28;45455;-79
2022/08/07 03:20:23;;;;;;;;;5.00;3.67;;;;;17.59;100.00;101868.91;5023904;28;45417;-79
2022/08/07 03:22:52;;;;;;;;;3.33;3.33;;;;;17.60;100.00;101876.16;5018946;28;45574;-78
2022/08/07 03:25:19;;;;;;;;;2.00;2.00;;;;;17.53;100.00;101870.69;5019852;28;46450;-78
2022/08/07 03:27:47;;;;;;;;;3.33;3.00;;;;;17.54;100.00;101866.81;5021538;28;45773;-78
2022/08/07 03:30:14;;;;;;;;;3.00;3.00;;;;;17.44;100.00;101847.06;5021626;28;45444;-80
2022/08/07 03:32:41;;;;;;;;;9.00;5.00;;;;;17.42;100.00;101849.22;5032351;28;47300;-82
2022/08/07 03:35:28;;;;;;;;;5.33;4.33;;;;;17.55;100.00;101873.22;5020234;28;47442;-80
2022/08/07 03:38:00;;;;;;;;;5.33;3.00;;;;;17.33;100.00;101851.44;5020076;28;45670;-80
2022/08/07 03:40:59;;;;;;;;;6.00;4.00;;;;;17.28;100.00;101848.50;5011342;28;45412;-80
2022/08/07 03:43:26;;;;;;;;;7.67;4.67;;;;;17.30;100.00;101862.97;5005298;28;45728;-81
2022/08/07 03:45:52;;;;;;;;;4.33;3.00;;;;;17.18;100.00;101846.22;5029106;28;46978;-79
2022/08/07 03:48:18;;;;;;;;;3.33;3.33;;;;;17.41;100.00;101880.78;5006760;28;45945;-78
2022/08/07 03:50:44;;;;;;;;;3.00;3.00;;;;;17.24;100.00;101852.78;5000470;28;45825;-79
2022/08/07 03:53:10;;;;;;;;;4.00;4.00;;;;;17.37;100.00;101883.19;5026085;28;45641;-79
2022/08/07 03:55:47;;;;;;;;;3.00;3.00;;;;;17.38;100.00;101882.13;5017984;28;45507;-80
2022/08/07 03:58:12;;;;;;;;;3.33;2.67;;;;;17.33;100.00;101867.22;5016634;28;45474;-78
2022/08/07 04:00:40;;;;;;;;;3.00;3.00;;;;;17.34;100.00;101866.16;5014724;28;45369;-78
2022/08/07 04:03:06;;;;;;;;;4.00;3.33;;;;;17.44;100.00;101885.88;5016144;28;45549;-81
2022/08/07 04:05:35;;;;;;;;;2.00;2.00;;;;;17.31;100.00;101856.38;5013551;28;45786;-80
2022/08/07 04:08:02;;;;;;;;;3.67;3.67;;;;;17.36;100.00;101869.53;5022228;28;45488;-80
2022/08/07 04:10:29;;;;;;;;;2.00;2.00;;;;;17.44;100.00;101874.78;5012380;28;45491;-79
2022/08/07 04:12:55;;;;;;;;;4.00;3.00;;;;;17.39;100.00;101869.94;5012208;28;45411;-80
2022/08/07 04:15:20;;;;;;;;;3.00;2.67;;;;;17.37;100.00;101872.09;5017136;28;46303;-78
2022/08/07 04:17:46;;;;;;;;;2.00;2.00;;;;;17.44;100.00;101874.78;5016456;28;45773;-78
2022/08/07 04:20:15;;;;;;;;;2.00;2.00;;;;;17.47;100.00;101874.38;5021427;28;45474;-78
2022/08/07 04:22:42;;;;;;;;;2.00;2.00;;;;;17.44;100.00;101870.13;5017158;28;45836;-79
2022/08/07 04:25:08;;;;;;;;;2.00;2.00;;;;;17.44;100.00;101875.66;5017282;28;45815;-79
2022/08/07 04:27:40;;;;;;;;;1.00;1.00;;;;;17.39;100.00;101869.94;5016688;28;45855;-78
2022/08/07 04:30:16;;;;;;;;;3.67;2.00;;;;;17.47;100.00;101882.69;5014642;28;45472;-79
2022/08/07 04:32:42;;;;;;;;;4.33;2.00;;;;;17.47;100.00;101880.75;5011342;28;45798;-80
2022/08/07 04:35:08;;;;;;;;;1.67;1.67;;;;;17.52;100.00;101882.84;5014449;28;46529;-79
2022/08/07 04:37:35;;;;;;;;;2.67;2.00;;;;;17.56;100.00;101886.00;5017896;28;45411;-81
2022/08/07 04:40:04;;;;;;;;;2.00;2.00;;;;;17.61;100.00;101863.97;5012976;28;45583;-81
2022/08/07 04:42:31;;;;;;;;;4.00;2.00;;;;;17.79;100.00;101861.22;5012556;28;46753;-78
2022/08/07 04:45:01;;;;;;;;;3.33;2.33;;;;;18.04;100.00;101874.22;5014336;28;45787;-79
2022/08/07 04:47:32;;;;;;;;;1.00;1.00;;;;;18.33;100.00;101878.13;5012691;28;45854;-78
2022/08/07 04:50:14;;;;;;;;;3.00;2.00;;;;;18.63;100.00;101870.91;5013600;28;45818;-79
2022/08/07 04:52:49;;;;;;;;;1.33;1.33;;;;;19.00;100.00;101873.63;5007340;28;45472;-81
2022/08/07 04:55:36;;;;;;;;;4.00;3.00;;;;;19.46;100.00;101877.56;5016923;28;46606;-77
2022/08/07 04:58:22;;;;;;;;;2.67;2.67;;;;;19.91;100.00;101884.44;5014499;28;45789;-78
2022/08/07 05:00:56;;;;;;;;;4.00;4.00;;;;;20.37;100.00;101876.25;5017212;28;45883;-80
2022/08/07 05:03:29;;;;;;;;;2.00;2.00;;;;;20.85;98.15;101879.72;5018191;28;45422;-80
2022/08/07 05:06:08;;;;;;;;;2.00;2.00;;;;;21.32;94.54;101882.25;5016004;28;45675;-79
2022/08/07 05:08:50;;;;;;;;;2.00;2.00;;;;;21.87;87.49;101883.38;5017976;28;44918;-81
2022/08/07 05:11:31;;;;;;;;;2.00;2.00;;;;;22.46;83.17;101902.38;5016851;28;45522;-78
2022/08/07 05:14:10;;;;;;;;;2.67;2.00;;;;;22.88;76.54;101889.69;5009225;28;45439;-77
2022/08/07 05:16:38;;;;;;;;;2.33;1.00;;;;;23.40;74.29;101896.63;5016719;28;46323;-81
2022/08/07 05:19:19;;;;;;;;;3.00;2.00;;;;;23.95;71.54;101902.91;5015146;28;45787;-79
2022/08/07 05:21:53;;;;;;;;;2.67;2.67;;;;;24.28;66.62;101867.19;5014401;28;45905;-78
2022/08/07 05:24:20;;;;;;;;;1.00;1.00;;;;;24.91;60.34;101897.16;5016766;28;45551;-77
2022/08/07 05:26:48;;;;;;;;;2.33;2.33;;;;;25.15;58.60;101873.06;5015361;28;46792;-80
2022/08/07 05:29:16;;;;;;;;;2.00;2.00;;;;;25.67;55.05;101916.00;5014417;28;45739;-78
2022/08/07 05:31:45;;;;;;;;;1.00;1.00;;;;;25.81;54.45;101896.63;5006767;28;45439;-80
2022/08/07 05:34:15;;;;;;;;;1.33;1.33;;;;;26.34;52.90;101909.41;5016329;28;45439;-78
2022/08/07 05:36:50;;;;;;;;;3.67;2.33;;;;;26.76;49.83;101923.00;5016575;28;45519;-79
2022/08/07 05:39:18;;;;;;;;;2.00;1.00;;;;;27.11;48.14;101923.06;5013479;28;45951;-78
2022/08/07 05:41:48;;;;;;;;;1.00;1.00;;;;;27.31;46.58;101903.22;5014258;28;45733;-77
2022/08/07 05:44:16;;;;;;;;;3.00;1.33;;;;;27.53;46.16;101890.66;5013350;28;45400;-78
2022/08/07 05:46:43;;;;;;;;;2.00;1.67;;;;;27.97;44.78;101897.28;5013623;28;48443;-78
2022/08/07 05:49:13;;;;;;;;;2.00;2.00;;;;;28.59;43.15;101919.09;5016964;28;45429;-79
2022/08/07 05:51:42;;;;;;;;;3.00;2.33;;;;;28.94;41.87;101908.44;5030355;28;45301;-78
2022/08/07 05:54:09;;;;;;;;;1.00;1.00;;;;;29.37;39.86;101916.84;5042378;28;46368;-78
2022/08/07 05:56:35;;;;;;;;;1.00;1.00;;;;;29.44;38.93;101893.84;5024617;28;45488;-80
2022/08/07 05:59:04;;;;;;;;;0.00;0.00;;;;;29.93;38.15;101917.84;5027621;28;45545;-78
2022/08/07 06:01:30;;;;;;;;;2.00;2.00;;;;;30.19;37.45;101925.81;5031897;28;45860;-80
2022/08/07 06:04:01;;;;;;;;;2.00;2.00;;;;;30.17;36.58;101897.84;5024630;28;45484;-80
2022/08/07 06:06:27;;;;;;;;;1.00;1.00;;;;;30.50;35.76;101925.22;5030073;28;46809;-80
2022/08/07 06:08:55;;;;;;;;;2.00;2.00;;;;;30.57;35.47;101900.13;5027687;28;45455;-79
2022/08/07 06:11:21;;;;;;;;;2.00;2.00;;;;;30.77;35.12;101927.97;5007114;28;45578;-81
2022/08/07 06:13:47;;;;;;;;;2.75;1.00;;;;;30.73;34.78;101890.13;5019307;28;46210;-81
2022/08/07 06:16:14;;;;;;;;;2.00;2.00;;;;;31.00;34.43;101907.41;5007231;28;45420;-80
2022/08/07 06:18:40;;;;;;;;;2.00;2.00;;;;;31.21;34.16;101913.41;5023127;28;45534;-81
2022/08/07 06:21:07;;;;;;;;;3.50;1.00;;;;;31.40;33.42;101913.22;5020556;28;45759;-82
2022/08/07 06:23:33;;;;;;;;;1.75;1.75;;;;;31.78;33.35;101929.81;5016175;28;45336;-81
2022/08/07 06:25:59;;;;;;;;;2.00;2.00;;;;;31.78;32.81;101892.94;5018395;28;45390;-81
2022/08/07 06:28:24;;;;;;;;;1.25;1.25;;;;;32.18;32.05;101927.03;5015361;28;45477;-80
2022/08/07 06:30:50;;;;;;;;;1.50;1.50;;;;;32.04;31.77;101893.06;5014125;28;45514;-79
2022/08/07 06:33:17;;;;;;;;;2.00;2.00;;;;;32.13;31.32;101891.13;5004548;28;45522;-82
2022/08/07 06:35:43;;;;;;;;;15.67;10.67;;;;;32.43;31.34;101922.59;5012046;28;46632;-80
2022/08/07 06:38:08;;;;;;;;;1.50;1.50;;;;;32.52;31.42;101914.09;5014533;28;45792;-83
2022/08/07 06:40:39;;;;;;;;;0.00;0.00;;;;;32.67;30.64;101922.19;5014391;28;45691;-78
2022/08/07 06:43:08;;;;;;;;;2.00;2.00;;;;;32.81;30.67;101924.84;5011920;28;45677;-79
2022/08/07 06:45:33;;;;;;;;;1.00;0.00;;;;;33.11;30.07;101918.53;5022746;28;46288;-81
2022/08/07 06:48:00;;;;;;;;;1.00;1.00;;;;;33.30;29.70;101910.50;5011372;28;45756;-81
2022/08/07 06:50:26;;;;;;;;;1.00;1.00;;;;;33.55;29.32;101920.19;5015756;28;45551;-79
2022/08/07 06:52:54;;;;;;;;;2.75;1.00;;;;;33.77;28.70;101929.69;5023267;28;45470;-78
2022/08/07 06:55:29;;;;;;;;;1.25;1.25;;;;;34.03;28.50;101932.44;5012679;28;47520;-81
2022/08/07 06:58:02;;;;;;;;;3.50;1.00;;;;;34.21;28.43;101921.81;5014605;28;45328;-79
2022/08/07 07:00:33;;;;;;;;;0.50;0.50;;;;;34.59;28.06;101931.50;5014549;28;45361;-79
2022/08/07 07:03:00;;;;;;;;;1.75;1.75;;;;;34.80;26.88;101920.97;5016122;28;45880;-79
2022/08/07 07:05:26;;;;;;;;;1.00;1.00;;;;;35.05;27.19;101925.97;5023950;28;45487;-81
2022/08/07 07:07:51;;;;;;;;;3.25;2.00;;;;;35.42;26.40;101929.03;5011553;28;45816;-79
2022/08/07 07:10:34;;;;;;;;;5.00;3.00;;;;;35.65;26.41;101927.44;5017058;28;45707;-79
2022/08/07 07:13:32;;;;;;;;;1.25;1.00;;;;;35.92;26.06;101921.47;5013527;28;46080;-77
2022/08/07 07:16:06;;;;;;;;;1.00;1.00;;;;;35.96;25.75;101893.84;5014591;28;46124;-79
2022/08/07 07:18:43;;;;;;;;;2.00;2.00;;;;;36.45;25.06;101907.31;5013334;28;45834;-80
2022/08/07 07:21:19;;;;;;;;;2.50;1.25;;;;;36.75;24.69;101916.44;5012837;28;45506;-81
2022/08/07 07:23:46;;;;;;;;;0.75;0.75;;;;;36.88;24.32;101883.78;5012241;28;46014;-81
2022/08/07 07:26:17;;;;;;;;;1.00;1.00;;;;;37.34;24.14;101909.25;5015719;28;46173;-80
2022/08/07 07:28:51;;;;;;;;;0.50;0.00;;;;;37.55;23.35;101902.47;5011351;28;45825;-80
2022/08/07 07:31:30;;;;;;;;;1.00;1.00;;;;;37.37;23.53;101897.06;5012733;28;45708;-80
2022/08/07 07:34:02;;;;;;;;;1.75;1.75;;;;;37.39;23.41;101899.56;5012919;28;45358;-79
2022/08/07 07:36:31;;;;;;;;;2.00;2.00;;;;;37.38;23.02;101897.88;5000437;28;45743;-78
2022/08/07 07:38:58;;;;;;;;;2.00;1.00;;;;;37.47;22.88;101907.13;5012696;28;45530;-80
2022/08/07 07:41:27;;;;;;;;;0.50;0.50;;;;;37.80;22.75;101906.00;4999883;28;45765;-80
2022/08/07 07:43:55;;;;;;;;;1.00;1.00;;;;;37.49;22.53;101881.00;5013005;28;45586;-79
2022/08/07 07:46:22;;;;;;;;;1.50;1.50;;;;;37.43;22.62;101911.94;5013249;28;46900;-80
2022/08/07 07:48:50;;;;;;;;;1.00;1.00;;;;;37.32;23.06;101894.47;5013575;28;46101;-79
2022/08/07 07:51:17;;;;;;;;;1.50;0.00;;;;;37.68;22.80;101911.78;5015148;28;45815;-79
2022/08/07 07:53:45;;;;;;;;;3.00;3.00;;;;;38.02;22.47;101897.97;5014186;28;45416;-79
2022/08/07 07:56:12;;;;;;;;;3.00;2.00;;;;;38.21;21.96;101903.81;5013521;28;47025;-80
2022/08/07 07:58:40;;;;;;;;;1.50;1.00;;;;;38.04;21.67;101890.69;5014204;28;45735;-80
2022/08/07 08:01:07;;;;;;;;;2.00;2.00;;;;;38.21;22.04;101905.84;5010327;28;45773;-81
2022/08/07 08:03:37;;;;;;;;;0.75;0.75;;;;;38.43;22.09;101902.28;5011697;28;45472;-80
2022/08/07 08:06:05;;;;;;;;;1.00;1.00;;;;;38.91;21.62;101899.28;5011911;28;45404;-80
2022/08/07 08:08:32;;;;;;;;;1.00;1.00;;;;;39.33;21.58;101894.81;5016564;28;45510;-78
2022/08/07 08:11:00;;;;;;;;;1.00;1.00;;;;;39.80;21.32;101905.16;5012253;28;45777;-76
2022/08/07 08:13:27;;;;;;;;;3.00;2.00;;;;;40.32;20.86;101904.78;5014671;28;45809;-78
2022/08/07 08:15:55;;;;;;;;;1.00;1.00;;;;;40.88;20.60;101895.38;5011443;28;47171;-77
2022/08/07 08:18:23;;;;;;;;;1.00;1.00;;;;;41.22;19.78;101877.28;5012112;28;45710;-77
2022/08/07 08:20:49;;;;;;;;;2.00;2.00;;;;;41.10;19.29;101870.56;5011553;28;45558;-78
2022/08/07 08:28:55;;;;;;;;;0.00;0.00;;;;;41.12;19.12;101884.56;4992540;28;45409;-81
2022/08/07 08:31:27;;;;;;;;;1.00;1.00;;;;;41.26;19.00;101886.78;5018096;28;45465;-79
2022/08/07 08:33:55;;;;;;;;;0.00;0.00;;;;;41.20;18.74;101869.03;5016369;28;45548;-78
2022/08/07 08:36:26;;;;;;;;;1.00;1.00;;;;;41.42;19.15;101886.56;5018824;28;45875;-80
2022/08/07 08:38:55;;;;;;;;;2.00;2.00;;;;;41.71;18.46;101860.91;5021811;28;45721;-80
2022/08/07 08:41:29;;;;;;;;;0.25;0.25;;;;;41.95;18.19;101871.84;5009178;28;45507;-79
2022/08/07 08:44:12;;;;;;;;;1.00;1.00;;;;;41.62;18.26;101862.09;5037598;28;46178;-79
2022/08/07 08:46:55;;;;;;;;;1.75;1.00;;;;;41.68;17.78;101868.31;5009031;28;46895;-80
2022/08/07 08:49:56;;;;;;;;;1.00;1.00;;;;;41.70;17.59;101865.03;5022456;28;45962;-78
2022/08/07 08:52:33;;;;;;;;;1.00;1.00;;;;;41.10;17.74;101843.84;4985601;28;45397;-82
2022/08/07 08:55:05;;;;;;;;;0.50;0.00;;;;;40.96;18.29;101843.69;5018899;28;45665;-78
2022/08/07 08:57:41;;;;;;;;;1.25;1.25;;;;;41.07;18.36;101844.63;5016165;28;47060;-78
2022/08/07 09:00:11;;;;;;;;;1.25;1.00;;;;;41.26;17.93;101850.19;5020662;28;45460;-78
2022/08/07 09:02:57;;;;;;;;;2.00;2.00;;;;;41.71;17.71;101875.31;5018248;28;45421;-81
2022/08/07 09:05:44;;;;;;;;;1.00;1.00;;;;;41.62;17.72;101870.72;5021139;28;44808;-80
2022/08/07 09:08:32;;;;;;;;;0.50;0.50;;;;;41.32;17.61;101872.88;5024872;28;46538;-79
2022/08/07 09:11:21;;;;;;;;;1.50;1.50;;;;;41.01;17.78;101869.25;5028574;28;45558;-83
2022/08/07 09:14:25;;;;;;;;;2.75;1.00;;;;;40.75;18.31;101883.28;5013612;28;45805;-81
2022/08/07 09:17:01;;;;;;;;;1.00;1.00;;;;;40.97;18.18;101871.25;5015951;28;45753;-79
2022/08/07 09:19:56;;;;;;;;;1.25;1.25;;;;;41.28;18.07;101867.06;5015297;28;45480;-78
2022/08/07 09:22:36;;;;;;;;;1.00;1.00;;;;;41.39;17.94;101856.50;5005621;28;45474;-79
2022/08/07 09:25:33;;;;;;;;;1.67;1.67;;;;;41.36;17.11;101853.59;5027243;28;44841;-82
2022/08/07 09:28:02;;;;;;;;;2.00;2.00;;;;;40.88;16.94;101881.00;5027114;28;45474;-80
2022/08/07 09:30:47;;;;;;;;;2.00;2.00;;;;;40.25;17.00;101866.09;5033521;28;46521;-78
2022/08/07 09:33:22;;;;;;;;;3.00;3.00;;;;;39.46;18.03;101870.47;5023187;28;45293;-81
2022/08/07 09:36:01;;;;;;;;;2.50;2.00;;;;;39.04;18.27;101877.00;5024017;28;45443;-80
2022/08/07 09:38:45;;;;;;;;;2.00;2.00;;;;;38.91;17.70;101866.88;5030603;28;45487;-80
2022/08/07 09:41:10;;;;;;;;;2.00;2.00;;;;;38.55;18.67;101869.81;5041063;28;47106;-78
2022/08/07 09:44:06;;;;;;;;;3.00;3.00;;;;;38.49;19.36;101854.94;5029431;28;45356;-80
2022/08/07 09:46:46;;;;;;;;;3.00;3.00;;;;;38.65;19.11;101851.19;5017199;28;45773;-80
2022/08/07 09:49:39;;;;;;;;;1.00;1.00;;;;;38.88;18.54;101859.88;5031415;28;45455;-79
2022/08/07 09:52:17;;;;;;;;;3.75;2.75;;;;;39.16;19.06;101864.56;5047442;28;47031;-78
2022/08/07 09:55:04;;;;;;;;;2.00;2.00;;;;;39.30;18.65;101858.25;5012021;28;45457;-79
2022/08/07 09:57:44;;;;;;;;;2.00;2.00;;;;;39.44;18.73;101858.53;5042890;28;45425;-78
2022/08/07 10:00:13;;;;;;;;;3.00;3.00;;;;;39.84;18.20;101848.59;5026116;28;45772;-79
2022/08/07 10:03:06;;;;;;;;;1.75;1.75;;;;;39.77;18.71;101837.00;5026704;28;46700;-79
2022/08/07 10:05:51;;;;;;;;;3.00;2.00;;;;;39.86;18.30;101834.69;5028479;28;45352;-80
2022/08/07 10:08:38;;;;;;;;;1.00;1.00;;;;;40.05;18.25;101842.41;5022496;28;45348;-79
2022/08/07 10:11:22;;;;;;;;;1.00;1.00;;;;;40.17;18.48;101831.88;5024802;28;45969;-79
2022/08/07 10:14:06;;;;;;;;;2.00;1.00;;;;;40.06;18.01;101840.34;5021444;28;45513;-78
2022/08/07 10:16:46;;;;;;;;;2.25;2.00;;;;;39.27;17.77;101807.38;5046752;28;45349;-79
2022/08/07 10:19:17;;;;;;;;;2.00;2.00;;;;;39.33;17.64;101835.38;5027546;28;45497;-78
2022/08/07 10:21:52;;;;;;;;;1.75;1.75;;;;;39.13;18.87;101831.72;5024657;28;45990;-80
2022/08/07 10:24:46;;;;;;;;;2.25;2.25;;;;;39.34;18.07;101828.41;5015465;28;46861;-79
2022/08/07 10:27:34;;;;;;;;;2.67;2.67;;;;;39.01;18.50;101820.38;5023535;28;45408;-79
2022/08/07 10:30:12;;;;;;;;;2.75;2.75;;;;;38.68;18.46;101816.03;5029002;28;45284;-79
2022/08/07 10:33:06;;;;;;;;;2.50;2.00;;;;;38.57;18.31;101818.66;5033311;28;45983;-79
2022/08/07 10:36:02;;;;;;;;;2.50;2.50;;;;;38.15;18.55;101823.00;5021470;28;47180;-79
2022/08/07 10:38:43;;;;;;;;;2.00;2.00;;;;;37.87;18.42;101808.81;5033491;28;45309;-80
2022/08/07 10:41:33;;;;;;;;;2.00;2.00;;;;;38.08;18.68;101781.91;5037331;28;45410;-79
2022/08/07 10:44:05;;;;;;;;;3.33;3.33;;;;;38.49;18.68;101808.22;5024208;28;45933;-79
2022/08/07 10:46:54;;;;;;;;;1.75;1.75;;;;;38.24;18.20;101811.38;5021164;28;45581;-81
2022/08/07 10:49:32;;;;;;;;;2.50;2.50;;;;;37.79;18.31;101809.88;5031443;28;45576;-81
2022/08/07 10:52:08;;;;;;;;;4.00;3.00;;;;;37.61;18.88;101818.78;5022542;28;45512;-80
2022/08/07 10:54:53;;;;;;;;;2.00;2.00;;;;;37.63;18.69;101812.69;5028292;28;44744;-79
2022/08/07 10:57:50;;;;;;;;;2.75;2.75;;;;;37.96;19.21;101791.44;5028234;28;45698;-81
2022/08/07 11:00:18;;;;;;;;;2.00;2.00;;;;;37.85;19.17;101762.56;5028004;28;44837;-80
2022/08/07 11:02:49;;;;;;;;;3.00;3.00;;;;;38.25;18.40;101792.97;5043507;28;45404;-80
2022/08/07 11:05:45;;;;;;;;;2.00;2.00;;;;;38.09;18.77;101798.72;5029637;28;44788;-80
2022/08/07 11:08:33;;;;;;;;;2.00;2.00;;;;;37.93;18.39;101789.34;5034917;28;45685;-80
2022/08/07 11:11:29;;;;;;;;;1.00;1.00;;;;;37.82;18.70;101789.06;5028076;28;45479;-79
2022/08/07 11:14:08;;;;;;;;;2.00;2.00;;;;;37.37;18.37;101758.88;5018556;28;44793;-82
2022/08/07 11:16:42;;;;;;;;;3.00;3.00;;;;;37.15;19.21;101771.78;5029576;28;46097;-79
2022/08/07 11:19:15;;;;;;;;;4.00;4.00;;;;;36.76;19.54;101769.47;5038374;28;45633;-79
2022/08/07 11:21:55;;;;;;;;;3.25;3.25;;;;;36.28;19.49;101766.41;5020498;28;45481;-81
2022/08/07 11:24:32;;;;;;;;;2.75;2.00;;;;;35.60;20.46;101759.31;5011922;28;45317;-81
2022/08/07 11:27:06;;;;;;;;;2.00;2.00;;;;;35.03;21.14;101751.59;5011332;28;45624;-80
2022/08/07 11:30:03;;;;;;;;;3.33;3.33;;;;;34.30;21.28;101771.69;5011563;28;45780;-80
2022/08/07 11:32:51;;;;;;;;;3.00;3.00;;;;;33.54;21.94;101759.19;5009617;28;45860;-79
2022/08/07 11:35:27;;;;;;;;;4.50;3.25;;;;;32.75;22.39;101758.56;5008844;28;45364;-80
2022/08/07 11:38:20;;;;;;;;;3.00;3.00;;;;;32.12;23.08;101753.19;5008614;28;46001;-81
2022/08/07 11:41:01;;;;;;;;;4.67;3.33;;;;;31.43;24.44;101770.81;5020031;28;46663;-81
2022/08/07 11:43:34;;;;;;;;;3.75;2.50;;;;;30.63;24.75;101743.13;5009055;28;46217;-82
2022/08/07 11:46:08;;;;;;;;;6.00;3.33;;;;;30.07;26.17;101750.94;5004576;28;45462;-80
2022/08/07 11:48:58;;;;;;;;;2.67;1.67;;;;;29.62;26.07;101736.63;5000545;28;46196;-82
2022/08/07 11:51:45;;;;;;;;;3.00;3.00;;;;;29.47;26.79;101735.75;5000642;28;46317;-80
2022/08/07 11:54:39;;;;;;;;;2.67;2.67;;;;;29.01;27.11;101737.47;5005216;28;45525;-80